KMFD/MFD METAR and TAF weather

Enter ICAO airport designator
Station Type Date Time Source
KMFD METAR 2022/05/23 14:52 UTC NOAA

KMFD 231452Z 04005KT 10SM OVC017 13/09 A3031 RMK AO2 SLP264 T01330094 51004


Station Type Date Time Source
KMFD Decoded METAR 2022/05/23 14:52 UTC NOAA

LAHM MUNICIPAL AIRPORT, OH, United States (KMFD) 40-49N 082-31W 395M
May 23, 2022 - 10:52 AM EDT / 2022.05.23 1452 UTC
Wind: from the NE (040 degrees) at 6 MPH (5 KT):0
Visibility: 10 mile(s):0
Sky conditions: overcast
Temperature: 55.9 F (13.3 C)
Dew Point: 48.9 F (9.4 C)
Relative Humidity: 77%
Pressure (altimeter): 30.31 in. Hg (1026 hPa)
Pressure tendency: 0.01 inches (0.4 hPa) higher than three hours ago
ob: KMFD 231452Z 04005KT 10SM OVC017 13/09 A3031 RMK AO2 SLP264 T01330094 51004
cycle: 15

Station Type Date Time Source
KMFD TAF 2022/05/23 12:33 UTC NOAA

TAF KMFD 231131Z 2312/2412 01006KT P6SM BKN250
FM231400 05010KT P6SM BKN040
FM232100 04010KT P6SM SCT250

Example: see airport list